Terminal Aerodrome Forecast
Issued by NWS Sterling, VA

Current Version | Previous Version | Graphics & Text | Print | Product List | Glossary On
Versions: 1 2 3 4 5 6 7 8 9 10 11 12 13 14 15 16 17 18 19 20 21 22 23 24 25 26 27 28 29 30
000
FTUS41 KLWX 060957 AAB
TAFIAD
TAF AMD
KIAD 060957Z 0610/0712 VRB04KT 4SM BR FEW090
      TEMPO 0610/0613 1/2SM FG
     FM061600 03005KT P6SM BKN070
     FM062000 08008KT P6SM VCSH BKN040
     FM070400 VRB04KT P6SM SCT030 BKN090
     FM070900 VRB03KT 5SM BR SCT015 BKN030=

USA.gov is the U.S. government's official web portal to all federal, state and local government web resources and services.